createdAt,value
2022-08-17T00:00:42.844Z,20.92
2022-08-17T00:03:15.199Z,20.82
2022-08-17T00:05:48.191Z,21.02
2022-08-17T00:08:18.422Z,20.98
2022-08-17T00:10:47.210Z,20.95
2022-08-17T00:13:32.381Z,20.64
2022-08-17T00:16:05.200Z,20.80
2022-08-17T00:19:01.314Z,20.89
2022-08-17T00:21:23.768Z,20.81
2022-08-17T00:23:54.807Z,20.78
2022-08-17T00:26:44.496Z,20.66
2022-08-17T00:29:19.401Z,20.28
2022-08-17T00:31:48.928Z,20.69
2022-08-17T00:34:16.870Z,20.61
2022-08-17T00:36:45.134Z,20.14
2022-08-17T00:39:12.486Z,20.63
2022-08-17T00:41:42.519Z,20.55
2022-08-17T00:44:12.281Z,20.62
2022-08-17T00:46:43.106Z,20.61
2022-08-17T00:49:13.644Z,20.63
2022-08-17T00:51:48.062Z,20.62
2022-08-17T00:54:30.268Z,20.52
2022-08-17T00:57:13.341Z,20.57
2022-08-17T01:00:02.314Z,20.57
2022-08-17T01:02:41.879Z,20.55
2022-08-17T01:05:18.614Z,20.54
2022-08-17T01:07:51.169Z,20.52
2022-08-17T01:10:58.300Z,20.49
2022-08-17T01:13:14.743Z,20.33
2022-08-17T01:15:49.089Z,20.50
2022-08-17T01:18:19.075Z,20.49
2022-08-17T01:20:52.396Z,20.20
2022-08-17T01:23:24.505Z,20.43
2022-08-17T01:25:54.677Z,20.42
2022-08-17T01:28:52.477Z,20.43
2022-08-17T01:31:14.555Z,20.30
2022-08-17T01:33:43.077Z,20.42
2022-08-17T01:36:11.025Z,20.35
2022-08-17T01:38:39.646Z,20.33
2022-08-17T01:41:13.721Z,20.31
2022-08-17T01:43:55.307Z,20.26
2022-08-17T01:46:30.307Z,20.29
2022-08-17T01:48:59.342Z,20.18
2022-08-17T01:51:33.241Z,20.09
2022-08-17T01:54:11.952Z,20.10
2022-08-17T01:56:43.494Z,20.24
2022-08-17T01:59:16.601Z,20.20
2022-08-17T02:01:45.831Z,20.16
2022-08-17T02:04:14.588Z,20.17
2022-08-17T02:06:53.279Z,19.77
2022-08-17T02:09:29.817Z,19.90
2022-08-17T02:12:37.133Z,19.98
2022-08-17T02:14:48.298Z,19.96
2022-08-17T02:17:16.205Z,19.22
2022-08-17T02:19:43.885Z,19.96
2022-08-17T02:22:12.011Z,19.67
2022-08-17T02:24:59.537Z,19.82
2022-08-17T02:27:27.766Z,19.49
2022-08-17T02:29:55.510Z,19.29
2022-08-17T02:32:28.185Z,19.74
2022-08-17T02:34:57.742Z,19.69
2022-08-17T02:37:26.801Z,19.88
2022-08-17T02:39:57.304Z,19.36
2022-08-17T02:42:33.983Z,19.77
2022-08-17T02:45:04.257Z,19.50
2022-08-17T02:47:31.831Z,19.64
2022-08-17T02:49:59.437Z,19.68
2022-08-17T02:52:42.838Z,19.65
2022-08-17T02:55:19.480Z,19.34
2022-08-17T02:57:49.222Z,19.59
2022-08-17T03:00:28.711Z,19.57
2022-08-17T03:02:57.665Z,19.54
2022-08-17T03:05:28.162Z,19.55
2022-08-17T03:07:56.917Z,19.42
2022-08-17T03:10:25.674Z,19.51
2022-08-17T03:12:54.188Z,19.51
2022-08-17T03:15:27.387Z,19.49
2022-08-17T03:17:57.373Z,19.50
2022-08-17T03:20:28.944Z,19.49
2022-08-17T03:23:00.021Z,19.47
2022-08-17T03:25:36.963Z,19.48
2022-08-17T03:28:07.665Z,19.46
2022-08-17T03:30:36.087Z,19.36
2022-08-17T03:33:07.707Z,19.07
2022-08-17T03:35:37.781Z,19.40
2022-08-17T03:38:06.569Z,19.38
2022-08-17T03:40:55.389Z,19.10
2022-08-17T03:43:23.486Z,19.35
2022-08-17T03:46:11.039Z,19.37
2022-08-17T03:49:17.354Z,19.34
2022-08-17T03:52:03.616Z,19.32
2022-08-17T03:54:57.657Z,19.34
2022-08-17T03:57:26.169Z,19.30
2022-08-17T03:59:54.797Z,18.94
2022-08-17T04:02:27.217Z,19.24
2022-08-17T04:04:55.235Z,19.26
2022-08-17T04:07:25.341Z,19.19
2022-08-17T04:09:52.858Z,19.27
2022-08-17T04:12:22.812Z,19.22
2022-08-17T04:14:54.651Z,19.18
2022-08-17T04:17:28.031Z,19.13
2022-08-17T04:19:56.729Z,19.14
2022-08-17T04:22:32.283Z,19.00
2022-08-17T04:25:15.339Z,19.13
2022-08-17T04:27:43.030Z,19.01
2022-08-17T04:30:11.877Z,19.14
2022-08-17T04:33:03.665Z,19.16
2022-08-17T04:35:55.025Z,19.16
2022-08-17T04:38:28.011Z,18.96
2022-08-17T04:41:15.582Z,19.14
2022-08-17T04:43:45.326Z,19.21
2022-08-17T04:46:15.917Z,19.21
2022-08-17T04:48:51.659Z,19.19
2022-08-17T04:51:21.730Z,19.02
2022-08-17T04:53:54.924Z,19.04
2022-08-17T04:56:26.026Z,19.24
2022-08-17T04:58:57.490Z,19.26
2022-08-17T05:01:26.564Z,19.27
2022-08-17T05:03:59.245Z,19.22
2022-08-17T05:06:28.773Z,19.22
2022-08-17T05:08:59.216Z,19.32
2022-08-17T05:11:29.099Z,18.98
2022-08-17T05:13:59.267Z,19.37
2022-08-17T05:16:29.238Z,19.24
2022-08-17T05:18:59.291Z,19.44
2022-08-17T05:21:27.820Z,19.25
2022-08-17T05:23:58.613Z,19.56
2022-08-17T05:26:29.470Z,19.62
2022-08-17T05:29:00.643Z,19.53
2022-08-17T05:31:31.873Z,19.71
2022-08-17T05:33:59.595Z,19.78
2022-08-17T05:36:41.640Z,19.69
2022-08-17T05:39:16.340Z,19.77
2022-08-17T05:41:47.909Z,20.01
2022-08-17T05:44:16.684Z,20.10
2022-08-17T05:46:50.499Z,19.61
2022-08-17T05:49:22.470Z,20.07
2022-08-17T05:51:56.246Z,20.30
2022-08-17T05:54:55.101Z,20.39
2022-08-17T05:57:47.562Z,20.45
2022-08-17T06:00:30.732Z,20.55
2022-08-17T06:03:11.570Z,20.64
2022-08-17T06:05:41.942Z,20.68
2022-08-17T06:08:52.969Z,20.49
2022-08-17T06:12:19.756Z,20.75
2022-08-17T06:15:05.551Z,20.84
2022-08-17T06:17:34.630Z,21.06
2022-08-17T06:20:13.322Z,21.16
2022-08-17T06:22:49.677Z,21.24
2022-08-17T06:25:38.220Z,21.26
2022-08-17T06:28:13.857Z,21.31
2022-08-17T06:31:00.340Z,21.49
2022-08-17T06:33:36.058Z,21.54
2022-08-17T06:36:09.353Z,21.60
2022-08-17T06:38:58.299Z,21.65
2022-08-17T06:41:54.932Z,21.84
2022-08-17T06:44:52.545Z,21.91
2022-08-17T06:47:31.711Z,21.85
2022-08-17T06:50:14.652Z,22.10
2022-08-17T06:52:50.676Z,22.12
2022-08-17T06:55:33.256Z,22.21
2022-08-17T06:58:16.431Z,22.26
2022-08-17T07:00:48.282Z,22.32
2022-08-17T07:03:38.109Z,22.34
2022-08-17T07:06:22.909Z,22.41
2022-08-17T07:09:15.024Z,22.48
2022-08-17T07:12:15.312Z,22.59
2022-08-17T07:14:52.636Z,22.66
2022-08-17T07:17:46.460Z,22.80
2022-08-17T07:20:16.610Z,22.84
2022-08-17T07:22:59.647Z,22.98
2022-08-17T07:25:31.332Z,23.06
2022-08-17T07:28:02.580Z,23.14
2022-08-17T07:30:45.576Z,22.93
2022-08-17T07:33:20.319Z,23.28
2022-08-17T07:35:50.316Z,23.36
2022-08-17T07:38:28.555Z,23.43
2022-08-17T07:41:05.272Z,23.56
2022-08-17T07:43:35.301Z,23.62
2022-08-17T07:46:33.002Z,23.64
2022-08-17T07:49:07.683Z,23.69
2022-08-17T07:52:00.004Z,23.73
2022-08-17T07:54:43.238Z,23.68
2022-08-17T07:57:11.225Z,23.92
2022-08-17T07:59:41.290Z,24.06
2022-08-17T08:02:16.886Z,24.12
2022-08-17T08:05:01.495Z,24.17
2022-08-17T08:07:36.202Z,24.26
2022-08-17T08:10:27.917Z,24.21
2022-08-17T08:13:22.705Z,24.46
2022-08-17T08:15:54.747Z,24.30
2022-08-17T08:18:54.368Z,24.33
2022-08-17T08:21:33.514Z,24.67
2022-08-17T08:24:20.985Z,24.71
2022-08-17T08:27:12.169Z,24.77
2022-08-17T08:29:52.998Z,24.86
2022-08-17T08:32:30.320Z,24.92
2022-08-17T08:35:11.726Z,24.89
2022-08-17T08:38:13.549Z,24.91
2022-08-17T08:41:21.068Z,25.04
2022-08-17T08:44:07.464Z,25.04
2022-08-17T08:47:10.233Z,25.08
2022-08-17T08:50:04.004Z,25.13
2022-08-17T08:53:03.782Z,25.20
2022-08-17T08:55:45.630Z,25.35
2022-08-17T08:58:32.271Z,25.35
2022-08-17T09:01:35.921Z,25.51
2022-08-17T09:04:24.088Z,25.65
2022-08-17T09:06:58.092Z,25.78
2022-08-17T09:09:41.733Z,25.73
2022-08-17T09:12:17.148Z,25.66
2022-08-17T09:15:02.162Z,25.83
2022-08-17T09:17:43.709Z,25.87
2022-08-17T09:20:27.880Z,25.98
2022-08-17T09:23:03.523Z,26.03
2022-08-17T09:25:43.147Z,25.95
2022-08-17T09:28:25.844Z,26.27
2022-08-17T09:31:03.235Z,26.23
2022-08-17T09:33:34.468Z,26.25
2022-08-17T09:36:12.178Z,26.56
2022-08-17T09:39:02.721Z,26.61
2022-08-17T09:41:48.685Z,26.76
2022-08-17T09:44:44.615Z,26.80
2022-08-17T09:47:26.446Z,26.90
2022-08-17T09:50:57.377Z,26.98
2022-08-17T09:53:24.991Z,26.85
2022-08-17T09:56:10.513Z,27.10
2022-08-17T09:59:07.058Z,27.18
2022-08-17T10:01:54.078Z,26.84
2022-08-17T10:04:29.629Z,27.15
2022-08-17T10:07:02.704Z,27.21
2022-08-17T10:09:43.058Z,27.10
2022-08-17T10:12:32.314Z,27.36
2022-08-17T10:15:13.747Z,27.37
2022-08-17T10:18:23.326Z,27.44
2022-08-17T10:21:30.477Z,27.36
2022-08-17T10:24:32.009Z,27.43
2022-08-17T10:27:03.533Z,27.46
2022-08-17T10:29:48.947Z,27.57
2022-08-17T10:32:33.477Z,27.61
2022-08-17T10:35:10.201Z,27.72
2022-08-17T10:38:19.857Z,27.78
2022-08-17T10:41:06.274Z,27.86
2022-08-17T10:44:36.966Z,27.99
2022-08-17T10:47:16.311Z,28.09
2022-08-17T10:49:54.562Z,28.00
2022-08-17T10:52:50.238Z,28.02
2022-08-17T10:55:21.047Z,28.19
2022-08-17T10:57:50.841Z,28.09
2022-08-17T11:00:27.415Z,28.23
2022-08-17T11:02:58.472Z,28.12
2022-08-17T11:05:50.391Z,28.26
2022-08-17T11:08:49.393Z,28.30
2022-08-17T11:11:47.624Z,28.20
2022-08-17T11:14:52.374Z,28.34
2022-08-17T11:18:01.977Z,28.32
2022-08-17T11:20:47.410Z,28.31
2022-08-17T11:23:15.444Z,28.33
2022-08-17T11:25:56.731Z,28.09
2022-08-17T11:28:45.230Z,28.24
2022-08-17T11:31:38.823Z,28.39
2022-08-17T11:34:19.293Z,28.21
2022-08-17T11:36:50.943Z,28.42
2022-08-17T11:39:55.568Z,28.44
2022-08-17T11:42:46.171Z,28.41
2022-08-17T11:45:44.775Z,28.46
2022-08-17T11:49:15.399Z,28.41
2022-08-17T11:52:04.392Z,28.45
2022-08-17T11:54:45.415Z,28.47
2022-08-17T11:57:29.690Z,28.39
2022-08-17T12:00:06.626Z,28.45
2022-08-17T12:02:39.083Z,28.50
2022-08-17T12:05:17.078Z,28.39
2022-08-17T12:07:52.167Z,28.44
2022-08-17T12:10:31.993Z,28.38
2022-08-17T12:13:06.388Z,28.50
2022-08-17T12:15:41.541Z,28.55
2022-08-17T12:18:18.925Z,28.36
2022-08-17T12:21:03.000Z,28.41
2022-08-17T12:23:44.154Z,28.53
2022-08-17T12:26:19.611Z,28.49
2022-08-17T12:29:05.154Z,28.45
2022-08-17T12:31:44.462Z,28.61
2022-08-17T12:34:23.444Z,28.63
2022-08-17T12:36:55.209Z,28.75
2022-08-17T12:39:25.570Z,28.71
2022-08-17T12:42:02.122Z,28.90
2022-08-17T12:44:42.986Z,29.01
2022-08-17T12:47:22.701Z,28.71
2022-08-17T12:49:53.705Z,29.03
2022-08-17T12:52:25.283Z,28.94
2022-08-17T12:55:02.565Z,29.05
2022-08-17T12:57:34.205Z,29.08
2022-08-17T13:00:20.660Z,28.92
2022-08-17T13:03:08.282Z,29.05
2022-08-17T13:05:58.185Z,29.14
2022-08-17T13:08:38.185Z,29.20
2022-08-17T13:11:09.913Z,29.15
2022-08-17T13:13:42.067Z,29.22
2022-08-17T13:16:12.808Z,29.31
2022-08-17T13:18:48.398Z,29.19
2022-08-17T13:21:27.351Z,29.25
2022-08-17T13:23:58.836Z,29.30
2022-08-17T13:26:47.285Z,29.29
2022-08-17T13:29:35.493Z,29.37
2022-08-17T13:32:12.939Z,29.46
2022-08-17T13:35:14.885Z,29.44
2022-08-17T13:37:58.984Z,29.41
2022-08-17T13:40:35.941Z,29.38
2022-08-17T13:43:04.187Z,29.47
2022-08-17T13:45:52.575Z,29.28
2022-08-17T13:48:34.639Z,29.56
2022-08-17T13:51:12.100Z,29.62
2022-08-17T13:53:40.207Z,29.45
2022-08-17T13:56:37.468Z,29.41
2022-08-17T13:59:52.791Z,29.30
2022-08-17T14:02:17.317Z,29.46
2022-08-17T14:04:47.229Z,29.30
2022-08-17T14:07:16.882Z,29.43
2022-08-17T14:10:00.359Z,29.44
2022-08-17T14:12:30.778Z,29.51
2022-08-17T14:14:59.781Z,29.62
2022-08-17T14:17:36.569Z,29.02
2022-08-17T14:20:09.941Z,29.57
2022-08-17T14:22:44.031Z,29.48
2022-08-17T14:25:14.838Z,29.63
2022-08-17T14:27:53.663Z,29.49
2022-08-17T14:30:24.548Z,29.57
2022-08-17T14:32:54.403Z,29.57
2022-08-17T14:35:23.988Z,29.31
2022-08-17T14:37:52.840Z,29.33
2022-08-17T14:40:25.171Z,29.25
2022-08-17T14:42:55.297Z,29.28
2022-08-17T14:45:29.629Z,29.26
2022-08-17T14:48:00.456Z,29.14
2022-08-17T14:50:27.970Z,29.16
2022-08-17T14:52:59.242Z,29.17
2022-08-17T14:55:30.949Z,29.02
2022-08-17T14:57:58.425Z,29.12
2022-08-17T15:00:27.080Z,28.97
2022-08-17T15:03:00.227Z,28.99
2022-08-17T15:05:32.125Z,28.76
2022-08-17T15:08:01.534Z,28.93
2022-08-17T15:10:30.485Z,28.96
2022-08-17T15:12:59.011Z,28.91
2022-08-17T15:15:27.515Z,28.58
2022-08-17T15:17:56.251Z,28.69
2022-08-17T15:20:28.140Z,28.61
2022-08-17T15:22:59.549Z,28.57
2022-08-17T15:25:29.872Z,28.55
2022-08-17T15:27:58.558Z,28.47
2022-08-17T15:30:26.741Z,28.24
2022-08-17T15:32:55.733Z,28.40
2022-08-17T15:35:27.280Z,28.24
2022-08-17T15:38:07.927Z,28.29
2022-08-17T15:40:40.852Z,28.16
2022-08-17T15:43:12.580Z,27.67
2022-08-17T15:45:41.187Z,27.90
2022-08-17T15:48:09.374Z,27.97
2022-08-17T15:50:37.121Z,27.72
2022-08-17T15:53:05.042Z,27.44
2022-08-17T15:55:33.867Z,27.76
2022-08-17T15:58:02.025Z,27.59
2022-08-17T16:00:31.093Z,27.45
2022-08-17T16:03:44.312Z,27.42
2022-08-17T16:05:57.423Z,27.22
2022-08-17T16:08:28.816Z,26.96
2022-08-17T16:10:59.920Z,27.27
2022-08-17T16:13:28.509Z,27.15
2022-08-17T16:15:57.523Z,27.16
2022-08-17T16:18:28.005Z,27.05
2022-08-17T16:20:55.774Z,26.72
2022-08-17T16:23:24.165Z,26.53
2022-08-17T16:25:53.518Z,26.22
2022-08-17T16:28:36.003Z,26.50
2022-08-17T16:31:08.148Z,26.80
2022-08-17T16:33:39.129Z,26.72
2022-08-17T16:36:08.180Z,26.23
2022-08-17T16:38:36.982Z,26.52
2022-08-17T16:41:06.514Z,26.40
2022-08-17T16:43:34.809Z,26.55
2022-08-17T16:46:02.494Z,26.48
2022-08-17T16:48:33.635Z,26.26
2022-08-17T16:51:04.344Z,26.43
2022-08-17T16:53:32.631Z,26.35
2022-08-17T16:56:00.121Z,25.68
2022-08-17T16:58:28.255Z,25.80
2022-08-17T17:00:59.796Z,25.86
2022-08-17T17:03:31.310Z,25.65
2022-08-17T17:06:33.663Z,25.79
2022-08-17T17:09:08.429Z,25.62
2022-08-17T17:11:43.323Z,25.72
2022-08-17T17:14:16.518Z,25.70
2022-08-17T17:16:52.005Z,25.41
2022-08-17T17:19:40.172Z,25.45
2022-08-17T17:22:27.805Z,25.44
2022-08-17T17:25:31.139Z,25.44
2022-08-17T17:28:28.687Z,25.44
2022-08-17T17:31:08.476Z,25.35
2022-08-17T17:34:10.626Z,25.31
2022-08-17T17:36:48.636Z,25.21
2022-08-17T17:39:43.708Z,25.12
2022-08-17T17:42:20.167Z,25.24
2022-08-17T17:44:56.610Z,25.18
2022-08-17T17:47:25.511Z,25.18
2022-08-17T17:49:52.967Z,25.20
2022-08-17T17:52:36.573Z,25.02
2022-08-17T17:55:31.699Z,25.00
2022-08-17T17:58:21.771Z,25.02
2022-08-17T18:01:23.870Z,25.01
2022-08-17T18:04:20.486Z,24.96
2022-08-17T18:07:14.208Z,24.91
2022-08-17T18:10:19.701Z,24.91
2022-08-17T18:13:38.994Z,24.73
2022-08-17T18:16:13.011Z,24.72
2022-08-17T18:18:44.758Z,24.87
2022-08-17T18:21:46.385Z,24.83
2022-08-17T18:24:14.523Z,24.64
2022-08-17T18:27:08.243Z,24.75
2022-08-17T18:29:44.887Z,24.62
2022-08-17T18:32:12.782Z,24.66
2022-08-17T18:34:48.506Z,24.61
2022-08-17T18:37:37.841Z,24.40
2022-08-17T18:40:17.337Z,24.51
2022-08-17T18:43:03.320Z,24.12
2022-08-17T18:45:38.572Z,24.13
2022-08-17T18:48:20.512Z,24.17
2022-08-17T18:50:48.843Z,24.19
2022-08-17T18:53:35.636Z,24.19
2022-08-17T18:56:22.097Z,23.95
2022-08-17T18:59:04.690Z,24.02
2022-08-17T19:02:22.131Z,23.94
2022-08-17T19:04:59.641Z,23.87
2022-08-17T19:07:34.635Z,23.80
2022-08-17T19:10:33.446Z,23.78
2022-08-17T19:13:24.490Z,23.73
2022-08-17T19:16:29.525Z,23.82
2022-08-17T19:19:17.708Z,23.65
2022-08-17T19:21:53.305Z,23.66
2022-08-17T19:24:26.545Z,23.56
2022-08-17T19:27:06.331Z,23.64
2022-08-17T19:29:40.660Z,23.69
2022-08-17T19:32:10.713Z,23.74
2022-08-17T19:34:39.601Z,23.73
2022-08-17T19:37:22.323Z,23.61
2022-08-17T19:40:02.167Z,23.65
2022-08-17T19:42:33.314Z,23.64
2022-08-17T19:45:07.275Z,23.63
2022-08-17T19:47:54.869Z,23.65
2022-08-17T19:50:28.036Z,23.50
2022-08-17T19:53:13.998Z,23.54
2022-08-17T19:55:43.710Z,23.54
2022-08-17T19:58:35.785Z,23.47
2022-08-17T20:01:07.669Z,23.54
2022-08-17T20:04:07.196Z,23.29
2022-08-17T20:06:39.485Z,23.23
2022-08-17T20:09:29.776Z,23.50
2022-08-17T20:12:13.735Z,23.22
2022-08-17T20:14:55.435Z,23.17
2022-08-17T20:17:28.627Z,23.13
2022-08-17T20:20:19.350Z,23.17
2022-08-17T20:22:54.206Z,23.14
2022-08-17T20:25:49.657Z,22.85
2022-08-17T20:28:35.307Z,23.02
2022-08-17T20:31:27.647Z,22.98
2022-08-17T20:34:33.488Z,22.95
2022-08-17T20:37:11.035Z,22.88
2022-08-17T20:40:15.397Z,22.90
2022-08-17T20:42:43.578Z,22.73
2022-08-17T20:45:25.275Z,22.87
2022-08-17T20:48:36.168Z,22.64
2022-08-17T20:51:18.268Z,22.85
2022-08-17T20:53:51.868Z,22.86
2022-08-17T20:56:45.216Z,22.76
2022-08-17T20:59:22.450Z,22.79
2022-08-17T21:02:17.647Z,22.76
2022-08-17T21:05:00.395Z,22.72
2022-08-17T21:07:43.141Z,22.56
2022-08-17T21:10:21.905Z,22.66
2022-08-17T21:13:07.924Z,22.52
2022-08-17T21:16:10.754Z,22.55
2022-08-17T21:18:52.806Z,22.42
2022-08-17T21:21:48.766Z,22.43
2022-08-17T21:24:45.882Z,22.33
2022-08-17T21:27:28.309Z,22.33
2022-08-17T21:30:09.485Z,22.32
2022-08-17T21:32:40.480Z,22.21
2022-08-17T21:35:30.587Z,22.07
2022-08-17T21:38:03.890Z,22.21
2022-08-17T21:40:34.081Z,22.18
2022-08-17T21:43:17.601Z,22.06
2022-08-17T21:45:56.077Z,22.16
2022-08-17T21:48:28.129Z,21.67
2022-08-17T21:51:03.832Z,21.89
2022-08-17T21:53:40.870Z,21.96
2022-08-17T21:56:11.403Z,22.07
2022-08-17T21:58:48.480Z,21.96
2022-08-17T22:01:24.226Z,22.02
2022-08-17T22:03:59.220Z,22.01
2022-08-17T22:06:34.293Z,22.04
2022-08-17T22:09:07.362Z,21.88
2022-08-17T22:11:59.546Z,21.94
2022-08-17T22:14:53.164Z,21.78
2022-08-17T22:17:23.718Z,21.96
2022-08-17T22:19:59.270Z,21.96
2022-08-17T22:22:32.354Z,21.95
2022-08-17T22:25:08.293Z,21.76
2022-08-17T22:28:06.632Z,21.91
2022-08-17T22:30:36.112Z,21.96
2022-08-17T22:33:31.491Z,21.85
2022-08-17T22:36:09.654Z,21.81
2022-08-17T22:38:40.544Z,21.59
2022-08-17T22:41:24.268Z,21.77
2022-08-17T22:43:53.151Z,21.25
2022-08-17T22:46:24.563Z,21.73
2022-08-17T22:48:58.017Z,21.43
2022-08-17T22:51:31.203Z,21.53
2022-08-17T22:54:20.925Z,21.65
2022-08-17T22:57:23.086Z,21.63
2022-08-17T22:59:54.995Z,21.58
2022-08-17T23:02:33.587Z,21.49
2022-08-17T23:05:10.856Z,21.66
2022-08-17T23:07:40.364Z,21.63
2022-08-17T23:10:11.654Z,21.66
2022-08-17T23:12:40.791Z,21.67
2022-08-17T23:15:16.001Z,21.66
2022-08-17T23:17:45.658Z,21.49
2022-08-17T23:20:16.040Z,21.64
2022-08-17T23:22:51.973Z,21.54
2022-08-17T23:25:28.211Z,21.58
2022-08-17T23:27:58.600Z,21.31
2022-08-17T23:30:28.619Z,21.49
2022-08-17T23:33:05.073Z,21.54
2022-08-17T23:35:39.665Z,21.51
2022-08-17T23:38:13.956Z,21.35
2022-08-17T23:40:41.534Z,21.47
2022-08-17T23:43:23.756Z,21.41
2022-08-17T23:45:54.578Z,21.39
2022-08-17T23:48:35.016Z,21.35
2022-08-17T23:51:09.503Z,21.30
2022-08-17T23:53:40.394Z,21.38
2022-08-17T23:56:11.814Z,21.32
2022-08-17T23:58:45.186Z,21.29
